WetterOnline ( http://www.wetteronline.de )

Wetter aktuell Gelsenkirchen

Aktuelles Wetter: Essen (161m)

6-stündlich | Neueste Meldungen
Ortszeit Temperatur Wetter
Di, 21.08. 20:00 24.3° C bewölkt
Di, 21.08. 14:00 23.8° C bewölkt
Di, 21.08. 8:00 18.1° C bedeckt
Di, 21.08. 2:00 19.0° C bedeckt
Mo, 20.08. 20:00 21.0° C bedeckt
Mo, 20.08. 14:00 21.0° C bedeckt
Mo, 20.08. 8:00 17.8° C Sprühregen
Mo, 20.08. 2:00 20.0° C bedeckt
Ortszeit Temperatur Wetter
Mi, 22.08. 1:00 20.4° C bedeckt
Mi, 22.08. 0:50 20.4° C bedeckt
Mi, 22.08. 0:40 20.1° C bewölkt
Mi, 22.08. 0:30 20.1° C leicht bewölkt
Mi, 22.08. 0:20 20.1° C leicht bewölkt
Mi, 22.08. 0:10 20.0° C fast wolkenlos
Mi, 22.08. 0:00 21.1° C wolkenlos
Di, 21.08. 23:30 21.8° C leicht bewölkt
Di, 21.08. 23:00 22.0° C wolkig
Di, 21.08. 22:30 22.4° C leicht bewölkt
Di, 21.08. 22:00 23.0° C bedeckt
Ortszeit Relative Feuchte Sichtweite
Di, 21.08. 20:00 54% 65 km
Di, 21.08. 14:00 55% 60 km
Di, 21.08. 8:00 86% 30 km
Di, 21.08. 2:00 80% 60 km
Mo, 20.08. 20:00 73% 60 km
Mo, 20.08. 14:00 81% 10 km
Mo, 20.08. 8:00 90% 8 km
Mo, 20.08. 2:00 76% 30 km
Ortszeit Relative Feuchte Sichtweite
Mi, 22.08. 1:00 65% >70 km
Mi, 22.08. 0:50 65% -
Mi, 22.08. 0:40 67% -
Mi, 22.08. 0:30 68% 60 km
Mi, 22.08. 0:20 68% -
Mi, 22.08. 0:10 68% -
Mi, 22.08. 0:00 61% >70 km
Di, 21.08. 23:30 59% >70 km
Di, 21.08. 23:00 59% >70 km
Di, 21.08. 22:30 59% 60 km
Di, 21.08. 22:00 57% 60 km
Ortszeit Niederschlagsmenge Niederschlagsart
Di, 21.08. 20:00 0.0 l/m2 in 12 Std. -
Di, 21.08. 14:00 0.0 l/m2 in 6 Std. -
Di, 21.08. 8:00 0.1 l/m2 in 12 Std. Niederschlag
Di, 21.08. 2:00 0.0 l/m2 in 6 Std. -
Mo, 20.08. 20:00 1 l/m2 in 12 Std. Regen
Mo, 20.08. 14:00 0.9 l/m2 in 6 Std. Regen
Mo, 20.08. 8:00 0.1 l/m2 in 12 Std. Sprühregen
Mo, 20.08. 2:00 0.0 l/m2 in 6 Std. -
Ortszeit Niederschlagsmenge Niederschlagsart
Mi, 22.08. 1:00 0.0 l/m2 in 1 Std. -
Mi, 22.08. 0:50 keine Meldung -
Mi, 22.08. 0:40 keine Meldung -
Mi, 22.08. 0:30 0.0 l/m2 in 1 Std. -
Mi, 22.08. 0:20 keine Meldung -
Mi, 22.08. 0:10 keine Meldung -
Mi, 22.08. 0:00 0.0 l/m2 in 1 Std. -
Di, 21.08. 23:30 0.0 l/m2 in 1 Std. -
Di, 21.08. 23:00 0.0 l/m2 in 1 Std. -
Di, 21.08. 22:30 0.0 l/m2 in 1 Std. -
Di, 21.08. 22:00 0.0 l/m2 in 1 Std. -
Ortszeit Stärke Spitze Richtung
km/h Bft. km/h Grad Sektor
Di, 21.08. 20:00 6 1 17 80° O
Di, 21.08. 14:00 7 2 14 340° N
Di, 21.08. 8:00 4 1 14 60° NO
Di, 21.08. 2:00 7 2 11 10° N
Mo, 20.08. 20:00 6 1 19 250° W
Mo, 20.08. 14:00 11 2 18 200° S
Mo, 20.08. 8:00 9 2 22 220° SW
Mo, 20.08. 2:00 7 2 18 240° SW
Ortszeit Stärke Spitze Richtung
km/h Bft. km/h Grad Sektor
Mi, 22.08. 1:00 7 2 11 120° SO
Mi, 22.08. 0:50 7 2 - 120° SO
Mi, 22.08. 0:40 7 2 - 110° O
Mi, 22.08. 0:30 7 2 11 110° O
Mi, 22.08. 0:20 7 2 - 110° O
Mi, 22.08. 0:10 7 2 - 110° O
Mi, 22.08. 0:00 7 2 13 90° O
Di, 21.08. 23:30 7 2 11 80° O
Di, 21.08. 23:00 7 2 14 70° O
Di, 21.08. 22:30 7 2 14 80° O
Di, 21.08. 22:00 7 2 13 70° O
Ortszeit Untergrenze Bedeckung Gattung
total tief tief mittel hoch
Di, 21.08. 20:00 2700 m 7/8 7/8 - - -
Di, 21.08. 14:00 1170 m 8/8 7/8 - - -
Di, 21.08. 8:00 2400 m 8/8 8/8 - - -
Di, 21.08. 2:00 1800 m 8/8 8/8 - - -
Mo, 20.08. 20:00 930 m 8/8 8/8 - - -
Mo, 20.08. 14:00 360 m 8/8 8/8 - - -
Mo, 20.08. 8:00 270 m 8/8 8/8 - - -
Mo, 20.08. 2:00 1020 m 8/8 8/8 - - -
Ortszeit Bedeckungsgrad in Achtel und Wolkenuntergrenze
Mi, 22.08. 1:00 8(2100m)
Mi, 22.08. 0:50 8(2100m)
Mi, 22.08. 0:40 7(2100m)
Mi, 22.08. 0:30 4(2100m)
Mi, 22.08. 0:20 4(2100m)
Mi, 22.08. 0:10 1(2400m)
Mi, 22.08. 0:00 keine Wolken
Di, 21.08. 23:30 3(2400m)
Di, 21.08. 23:00 6(2400m)
Di, 21.08. 22:30 3(2400m)
Di, 21.08. 22:00 8(2400m)
Ortszeit Luftdruck NN (hPa) Tendenz (hPa in 3 Std.)
Di, 21.08. 20:00 1018 - 0,9
Di, 21.08. 14:00 1020 - 0,7
Di, 21.08. 8:00 1021 + 0,3
Di, 21.08. 2:00 1021 + 0,5
Mo, 20.08. 20:00 1020 - 0,2
Mo, 20.08. 14:00 1020 + 0,1
Mo, 20.08. 8:00 1019 + 0,4
Mo, 20.08. 2:00 1019 0,0
Ortszeit Luftdruck NN (hPa) Tendenz (hPa in 3 Std.)
Mi, 22.08. 1:00 1019 0,0
Mi, 22.08. 0:50 1019 keine Meldung
Mi, 22.08. 0:40 1019 keine Meldung
Mi, 22.08. 0:30 1019 + 0,2
Mi, 22.08. 0:20 1019 keine Meldung
Mi, 22.08. 0:10 1019 keine Meldung
Mi, 22.08. 0:00 1019 + 0,1
Di, 21.08. 23:30 1019 + 0,1
Di, 21.08. 23:00 1019 + 0,2
Di, 21.08. 22:30 1019 + 0,1
Di, 21.08. 22:00 1019 + 0,1
Ortszeit Schneehöhe (cm)
Di, 21.08. 20:00 -
Di, 21.08. 14:00 -
Di, 21.08. 8:00 -
Di, 21.08. 2:00 -
Mo, 20.08. 20:00 -
Mo, 20.08. 14:00 -
Mo, 20.08. 8:00 -
Mo, 20.08. 2:00 -
Ortszeit Schneehöhe (cm)
Mi, 22.08. 1:00 -
Mi, 22.08. 0:50 -
Mi, 22.08. 0:40 -
Mi, 22.08. 0:30 -
Mi, 22.08. 0:20 -
Mi, 22.08. 0:10 -
Mi, 22.08. 0:00 -
Di, 21.08. 23:30 -
Di, 21.08. 23:00 -
Di, 21.08. 22:30 -
Di, 21.08. 22:00 -
Link zu dieser Seite / Seite empfehlen

Das Wetter in ...